AAL1364 KCLT-KMIA
Flight info
| Callsign | AAL1364 |
|---|---|
| Flight time | 1h 32m |
| Altitude | 40000 |
| Route | ICONS5 NOOKS WURFL Q83 JEVED Q97 DEBRL CSTAL3 |
| Aircraft | B772/H-SDE2E3FGHIJ5LORVWXY/LB1D1 |
Departure
| Time | 2026-05-04 13:19 |
|---|---|
| Airport | Charlotte Douglas International Airport (KCLT) |
Arrival
| Time | 2026-05-04 14:51 |
|---|---|
| Airport | Miami International Airport (KMIA) |
| Time | Latitude | Longitude | Altitude | Speed | Heading |
|---|---|---|---|---|---|
| 2026-05-04 13:14 | 35.22025 | -80.93799 | 735 ft | 0 kts | 356° |
| 2026-05-04 13:16 | 35.22026 | -80.93799 | 735 ft | 0 kts | 356° |
| 2026-05-04 13:16 | 35.22063 | -80.93803 | 734 ft | 10 kts | 356° |
| 2026-05-04 13:16 | 35.22166 | -80.93812 | 737 ft | 19 kts | 356° |
| 2026-05-04 13:16 | 35.22307 | -80.93824 | 737 ft | 21 kts | 356° |
| 2026-05-04 13:17 | 35.22444 | -80.93834 | 737 ft | 16 kts | 358° |
| 2026-05-04 13:17 | 35.22550 | -80.93816 | 737 ft | 16 kts | 46° |
| 2026-05-04 13:17 | 35.22534 | -80.93691 | 739 ft | 15 kts | 113° |
| 2026-05-04 13:17 | 35.22452 | -80.93616 | 740 ft | 15 kts | 164° |
| 2026-05-04 13:18 | 35.22346 | -80.93602 | 739 ft | 15 kts | 174° |
| 2026-05-04 13:18 | 35.22264 | -80.93594 | 740 ft | 29 kts | 176° |
| 2026-05-04 13:18 | 35.21474 | -80.93533 | 739 ft | 138 kts | 177° |
| 2026-05-04 13:18 | 35.20738 | -80.93462 | 775 ft | 178 kts | 174° |
| 2026-05-04 13:19 | 35.19449 | -80.93324 | 1661 ft | 182 kts | 176° |
| 2026-05-04 13:19 | 35.18183 | -80.93225 | 2662 ft | 189 kts | 180° |
| 2026-05-04 13:19 | 35.16250 | -80.93128 | 3064 ft | 230 kts | 179° |
| 2026-05-04 13:19 | 35.15152 | -80.93099 | 3306 ft | 242 kts | 185° |
| 2026-05-04 13:20 | 35.13443 | -80.93244 | 4072 ft | 251 kts | 188° |
| 2026-05-04 13:20 | 35.11665 | -80.93451 | 4958 ft | 256 kts | 188° |
| 2026-05-04 13:20 | 35.09899 | -80.93654 | 5811 ft | 259 kts | 188° |
| 2026-05-04 13:20 | 35.08095 | -80.93854 | 6688 ft | 261 kts | 187° |
| 2026-05-04 13:21 | 35.06262 | -80.94049 | 7454 ft | 266 kts | 188° |
| 2026-05-04 13:21 | 35.04398 | -80.94244 | 8206 ft | 272 kts | 188° |
| 2026-05-04 13:21 | 35.02501 | -80.94441 | 8971 ft | 276 kts | 188° |
| 2026-05-04 13:21 | 35.00568 | -80.94635 | 9717 ft | 281 kts | 189° |
| 2026-05-04 13:22 | 34.98598 | -80.94834 | 10340 ft | 290 kts | 189° |
| 2026-05-04 13:22 | 34.96522 | -80.95045 | 10547 ft | 317 kts | 189° |
| 2026-05-04 13:22 | 34.94255 | -80.95276 | 11010 ft | 334 kts | 189° |
| 2026-05-04 13:22 | 34.91890 | -80.95507 | 11783 ft | 344 kts | 188° |
| 2026-05-04 13:23 | 34.89471 | -80.95740 | 12790 ft | 350 kts | 188° |
| 2026-05-04 13:23 | 34.87024 | -80.95978 | 13948 ft | 355 kts | 188° |
| 2026-05-04 13:23 | 34.84546 | -80.96219 | 14954 ft | 360 kts | 188° |
| 2026-05-04 13:23 | 34.82027 | -80.96466 | 15994 ft | 364 kts | 189° |
| 2026-05-04 13:24 | 34.79489 | -80.96709 | 17037 ft | 369 kts | 188° |
| 2026-05-04 13:24 | 34.76894 | -80.96853 | 18050 ft | 375 kts | 186° |
| 2026-05-04 13:24 | 34.74302 | -80.96923 | 18939 ft | 380 kts | 186° |
| 2026-05-04 13:25 | 34.68927 | -80.97051 | 20657 ft | 391 kts | 186° |
| 2026-05-04 13:25 | 34.66185 | -80.97130 | 21526 ft | 396 kts | 187° |
| 2026-05-04 13:25 | 34.63402 | -80.97217 | 22377 ft | 402 kts | 187° |
| 2026-05-04 13:25 | 34.60585 | -80.97327 | 23228 ft | 406 kts | 188° |
| 2026-05-04 13:26 | 34.57749 | -80.97555 | 24013 ft | 411 kts | 191° |
| 2026-05-04 13:26 | 34.54924 | -80.97840 | 24741 ft | 414 kts | 191° |
| 2026-05-04 13:26 | 34.52042 | -80.98143 | 25529 ft | 417 kts | 191° |
| 2026-05-04 13:26 | 34.49135 | -80.98443 | 26304 ft | 420 kts | 191° |
| 2026-05-04 13:27 | 34.46206 | -80.98735 | 27060 ft | 424 kts | 191° |
| 2026-05-04 13:27 | 34.43252 | -80.99021 | 27785 ft | 428 kts | 191° |
| 2026-05-04 13:27 | 34.40272 | -80.99303 | 28468 ft | 431 kts | 191° |
| 2026-05-04 13:27 | 34.37265 | -80.99585 | 29169 ft | 435 kts | 191° |
| 2026-05-04 13:28 | 34.34232 | -80.99866 | 29839 ft | 438 kts | 191° |
| 2026-05-04 13:28 | 34.31179 | -81.00149 | 30420 ft | 442 kts | 191° |
| 2026-05-04 13:28 | 34.28099 | -81.00436 | 30912 ft | 446 kts | 191° |
| 2026-05-04 13:28 | 34.24993 | -81.00725 | 31383 ft | 450 kts | 191° |
| 2026-05-04 13:29 | 34.21862 | -81.01016 | 31841 ft | 453 kts | 191° |
| 2026-05-04 13:29 | 34.18706 | -81.01308 | 32319 ft | 457 kts | 191° |
| 2026-05-04 13:29 | 34.15525 | -81.01602 | 32787 ft | 459 kts | 192° |
| 2026-05-04 13:29 | 34.12372 | -81.01893 | 33212 ft | 462 kts | 191° |
| 2026-05-04 13:30 | 34.09156 | -81.02190 | 33660 ft | 465 kts | 191° |
| 2026-05-04 13:30 | 34.05924 | -81.02489 | 34067 ft | 468 kts | 191° |
| 2026-05-04 13:30 | 34.02660 | -81.02790 | 34402 ft | 471 kts | 191° |
| 2026-05-04 13:30 | 33.99375 | -81.03093 | 34725 ft | 474 kts | 191° |
| 2026-05-04 13:31 | 33.96048 | -81.03250 | 35037 ft | 481 kts | 187° |
| 2026-05-04 13:31 | 33.92679 | -81.03226 | 35375 ft | 484 kts | 186° |
| 2026-05-04 13:31 | 33.89308 | -81.03177 | 35811 ft | 483 kts | 186° |
| 2026-05-04 13:31 | 33.85958 | -81.03123 | 36267 ft | 481 kts | 186° |
| 2026-05-04 13:32 | 33.82660 | -81.03073 | 36728 ft | 479 kts | 186° |
| 2026-05-04 13:32 | 33.79328 | -81.03031 | 37142 ft | 479 kts | 186° |
| 2026-05-04 13:32 | 33.75984 | -81.02995 | 37542 ft | 479 kts | 187° |
| 2026-05-04 13:32 | 33.72649 | -81.02963 | 37951 ft | 478 kts | 187° |
| 2026-05-04 13:33 | 33.69323 | -81.02934 | 38379 ft | 477 kts | 187° |
| 2026-05-04 13:33 | 33.65998 | -81.02904 | 38786 ft | 477 kts | 187° |
| 2026-05-04 13:33 | 33.62718 | -81.02876 | 39057 ft | 477 kts | 187° |
| 2026-05-04 13:33 | 33.59401 | -81.02847 | 39365 ft | 476 kts | 187° |
| 2026-05-04 13:34 | 33.56086 | -81.02817 | 39675 ft | 476 kts | 187° |
| 2026-05-04 13:34 | 33.52774 | -81.02787 | 39975 ft | 475 kts | 187° |
| 2026-05-04 13:34 | 33.49447 | -81.02759 | 40078 ft | 479 kts | 187° |
| 2026-05-04 13:34 | 33.46096 | -81.02732 | 40143 ft | 481 kts | 187° |
| 2026-05-04 13:35 | 33.36119 | -81.02636 | 40137 ft | 473 kts | 187° |
| 2026-05-04 13:36 | 33.29530 | -81.02576 | 40149 ft | 473 kts | 187° |
| 2026-05-04 13:36 | 33.22976 | -81.02521 | 40152 ft | 474 kts | 187° |
| 2026-05-04 13:37 | 33.16362 | -81.02463 | 40145 ft | 475 kts | 187° |
| 2026-05-04 13:37 | 33.09732 | -81.02404 | 40144 ft | 476 kts | 187° |
| 2026-05-04 13:38 | 33.03136 | -81.02345 | 40147 ft | 476 kts | 187° |
| 2026-05-04 13:38 | 32.96501 | -81.02285 | 40149 ft | 476 kts | 187° |
| 2026-05-04 13:39 | 32.89858 | -81.02226 | 40148 ft | 476 kts | 187° |
| 2026-05-04 13:39 | 32.83226 | -81.02167 | 40106 ft | 476 kts | 187° |
| 2026-05-04 13:40 | 32.76645 | -81.02108 | 40137 ft | 475 kts | 187° |
| 2026-05-04 13:40 | 32.70021 | -81.02050 | 40145 ft | 476 kts | 187° |
| 2026-05-04 13:41 | 32.63393 | -81.01992 | 40150 ft | 476 kts | 187° |
| 2026-05-04 13:41 | 32.56764 | -81.01933 | 40108 ft | 476 kts | 187° |
| 2026-05-04 13:42 | 32.46868 | -81.01958 | 40146 ft | 475 kts | 189° |
| 2026-05-04 13:42 | 32.40262 | -81.02100 | 40152 ft | 475 kts | 189° |
| 2026-05-04 13:43 | 32.33636 | -81.02217 | 40150 ft | 475 kts | 188° |
| 2026-05-04 13:43 | 32.27016 | -81.02323 | 40136 ft | 475 kts | 189° |
| 2026-05-04 13:44 | 32.20443 | -81.02438 | 40150 ft | 475 kts | 189° |
| 2026-05-04 13:44 | 32.13825 | -81.02556 | 40152 ft | 475 kts | 189° |
| 2026-05-04 13:45 | 32.07195 | -81.02673 | 40121 ft | 476 kts | 189° |
| 2026-05-04 13:45 | 32.00568 | -81.02788 | 40085 ft | 475 kts | 189° |
| 2026-05-04 13:46 | 31.93995 | -81.02949 | 40108 ft | 474 kts | 190° |
| 2026-05-04 13:46 | 31.87392 | -81.03156 | 40123 ft | 475 kts | 190° |
| 2026-05-04 13:47 | 31.80772 | -81.03358 | 40126 ft | 475 kts | 190° |
| 2026-05-04 13:47 | 31.74154 | -81.03550 | 40103 ft | 476 kts | 190° |
| 2026-05-04 13:48 | 31.67529 | -81.03741 | 40130 ft | 476 kts | 190° |
| 2026-05-04 13:48 | 31.60943 | -81.03932 | 40135 ft | 476 kts | 190° |
| 2026-05-04 13:49 | 31.54317 | -81.04205 | 40136 ft | 474 kts | 192° |
| 2026-05-04 13:49 | 31.47724 | -81.04652 | 40104 ft | 474 kts | 192° |
| 2026-05-04 13:50 | 31.41166 | -81.05094 | 40141 ft | 474 kts | 192° |
| 2026-05-04 13:50 | 31.34559 | -81.05511 | 40149 ft | 475 kts | 192° |
| 2026-05-04 13:51 | 31.27948 | -81.05922 | 40147 ft | 475 kts | 192° |
| 2026-05-04 13:51 | 31.21316 | -81.06267 | 40147 ft | 478 kts | 191° |
| 2026-05-04 13:52 | 31.11344 | -81.06419 | 40144 ft | 479 kts | 190° |
| 2026-05-04 13:53 | 31.04675 | -81.06528 | 40150 ft | 479 kts | 191° |
| 2026-05-04 13:53 | 30.98003 | -81.06663 | 40151 ft | 479 kts | 191° |
| 2026-05-04 13:54 | 30.88038 | -81.06873 | 40149 ft | 479 kts | 191° |
| 2026-05-04 13:55 | 30.78034 | -81.07082 | 40143 ft | 479 kts | 191° |
| 2026-05-04 13:55 | 30.68059 | -81.07289 | 40149 ft | 479 kts | 191° |
| 2026-05-04 13:56 | 30.61390 | -81.07435 | 40118 ft | 477 kts | 192° |
| 2026-05-04 13:57 | 30.51469 | -81.08017 | 40143 ft | 475 kts | 193° |
| 2026-05-04 13:58 | 30.38258 | -81.08863 | 40142 ft | 477 kts | 193° |
| 2026-05-04 13:58 | 30.28305 | -81.09452 | 40144 ft | 477 kts | 193° |
| 2026-05-04 13:59 | 30.21665 | -81.09844 | 40141 ft | 477 kts | 193° |
| 2026-05-04 14:00 | 30.11759 | -81.10431 | 40146 ft | 477 kts | 193° |
| 2026-05-04 14:00 | 30.01817 | -81.11018 | 40146 ft | 476 kts | 193° |
| 2026-05-04 14:01 | 29.95206 | -81.11410 | 40152 ft | 476 kts | 193° |
| 2026-05-04 14:02 | 29.85316 | -81.11993 | 40149 ft | 476 kts | 193° |
| 2026-05-04 14:02 | 29.78687 | -81.12321 | 40124 ft | 478 kts | 191° |
| 2026-05-04 14:03 | 29.72005 | -81.12332 | 40139 ft | 479 kts | 189° |
| 2026-05-04 14:03 | 29.65337 | -81.12333 | 40141 ft | 478 kts | 190° |
| 2026-05-04 14:04 | 29.55385 | -81.12437 | 40142 ft | 477 kts | 191° |
| 2026-05-04 14:04 | 29.48762 | -81.12682 | 40127 ft | 474 kts | 192° |
| 2026-05-04 14:05 | 29.38884 | -81.13072 | 40126 ft | 473 kts | 191° |
| 2026-05-04 14:06 | 29.32306 | -81.13307 | 40130 ft | 472 kts | 191° |
| 2026-05-04 14:06 | 29.26782 | -81.12642 | 40133 ft | 495 kts | 172° |
| 2026-05-04 14:07 | 29.19149 | -81.09616 | 40129 ft | 499 kts | 169° |
| 2026-05-04 14:07 | 29.13691 | -81.07430 | 40122 ft | 499 kts | 170° |
| 2026-05-04 14:08 | 29.07108 | -81.04920 | 40134 ft | 498 kts | 171° |
| 2026-05-04 14:08 | 29.00521 | -81.02470 | 40123 ft | 498 kts | 171° |
| 2026-05-04 14:09 | 28.90641 | -80.98795 | 40110 ft | 496 kts | 171° |
| 2026-05-04 14:10 | 28.80848 | -80.95148 | 40110 ft | 495 kts | 171° |
| 2026-05-04 14:10 | 28.74319 | -80.92647 | 40106 ft | 497 kts | 167° |
| 2026-05-04 14:11 | 28.67892 | -80.89599 | 40116 ft | 500 kts | 165° |
| 2026-05-04 14:11 | 28.58316 | -80.84883 | 40127 ft | 497 kts | 166° |
| 2026-05-04 14:12 | 28.51985 | -80.81865 | 40130 ft | 495 kts | 166° |
| 2026-05-04 14:13 | 28.42454 | -80.77349 | 40127 ft | 494 kts | 166° |
| 2026-05-04 14:13 | 28.36112 | -80.74341 | 40120 ft | 494 kts | 166° |
| 2026-05-04 14:14 | 28.29798 | -80.71352 | 40092 ft | 493 kts | 166° |
| 2026-05-04 14:14 | 28.20282 | -80.66890 | 40096 ft | 490 kts | 169° |
| 2026-05-04 14:15 | 28.07305 | -80.63017 | 39667 ft | 485 kts | 175° |
| 2026-05-04 14:16 | 28.00802 | -80.61162 | 38784 ft | 478 kts | 174° |
| 2026-05-04 14:16 | 27.97606 | -80.60210 | 38302 ft | 474 kts | 174° |
| 2026-05-04 14:17 | 27.91276 | -80.58305 | 37425 ft | 465 kts | 174° |
| 2026-05-04 14:17 | 27.88154 | -80.57367 | 37011 ft | 461 kts | 174° |
| 2026-05-04 14:17 | 27.82039 | -80.55538 | 36193 ft | 453 kts | 174° |
| 2026-05-04 14:18 | 27.79000 | -80.54633 | 35782 ft | 450 kts | 174° |
| 2026-05-04 14:18 | 27.72968 | -80.52838 | 34894 ft | 446 kts | 174° |
| 2026-05-04 14:19 | 27.66988 | -80.51059 | 34047 ft | 443 kts | 174° |
| 2026-05-04 14:19 | 27.64015 | -80.50108 | 33578 ft | 445 kts | 171° |
| 2026-05-04 14:19 | 27.61080 | -80.48991 | 33118 ft | 446 kts | 169° |
| 2026-05-04 14:19 | 27.58199 | -80.47814 | 32684 ft | 444 kts | 168° |
| 2026-05-04 14:20 | 27.55307 | -80.46615 | 32264 ft | 442 kts | 168° |
| 2026-05-04 14:20 | 27.52420 | -80.45429 | 31844 ft | 440 kts | 168° |
| 2026-05-04 14:20 | 27.49543 | -80.44266 | 31425 ft | 439 kts | 169° |
| 2026-05-04 14:21 | 27.43792 | -80.41978 | 30594 ft | 436 kts | 169° |
| 2026-05-04 14:21 | 27.40930 | -80.40848 | 30186 ft | 436 kts | 169° |
| 2026-05-04 14:21 | 27.38067 | -80.39719 | 29685 ft | 435 kts | 169° |
| 2026-05-04 14:21 | 27.35208 | -80.38592 | 29188 ft | 435 kts | 169° |
| 2026-05-04 14:22 | 27.32392 | -80.37481 | 28725 ft | 433 kts | 169° |
| 2026-05-04 14:22 | 27.29555 | -80.36361 | 28285 ft | 430 kts | 169° |
| 2026-05-04 14:22 | 27.26742 | -80.35250 | 27815 ft | 428 kts | 168° |
| 2026-05-04 14:22 | 27.23934 | -80.34144 | 27379 ft | 425 kts | 168° |
| 2026-05-04 14:23 | 27.18362 | -80.31957 | 26502 ft | 422 kts | 168° |
| 2026-05-04 14:23 | 27.15588 | -80.30880 | 26053 ft | 421 kts | 168° |
| 2026-05-04 14:23 | 27.12821 | -80.29808 | 25593 ft | 419 kts | 168° |
| 2026-05-04 14:24 | 27.10062 | -80.28739 | 25174 ft | 418 kts | 168° |
| 2026-05-04 14:24 | 27.07351 | -80.27688 | 24743 ft | 417 kts | 168° |
| 2026-05-04 14:24 | 27.04614 | -80.26627 | 24309 ft | 416 kts | 168° |
| 2026-05-04 14:24 | 27.01873 | -80.25565 | 23862 ft | 416 kts | 168° |
| 2026-05-04 14:25 | 26.99137 | -80.24506 | 23373 ft | 415 kts | 168° |
| 2026-05-04 14:25 | 26.93699 | -80.22398 | 22436 ft | 411 kts | 168° |
| 2026-05-04 14:25 | 26.90995 | -80.21351 | 21987 ft | 409 kts | 168° |
| 2026-05-04 14:26 | 26.88313 | -80.20313 | 21550 ft | 406 kts | 168° |
| 2026-05-04 14:26 | 26.85641 | -80.19283 | 21107 ft | 404 kts | 168° |
| 2026-05-04 14:26 | 26.83013 | -80.18298 | 20651 ft | 402 kts | 169° |
| 2026-05-04 14:26 | 26.80363 | -80.17322 | 20228 ft | 400 kts | 169° |
| 2026-05-04 14:27 | 26.77720 | -80.16350 | 19797 ft | 399 kts | 169° |
| 2026-05-04 14:27 | 26.75086 | -80.15376 | 19351 ft | 397 kts | 169° |
| 2026-05-04 14:27 | 26.72467 | -80.14406 | 18892 ft | 396 kts | 169° |
| 2026-05-04 14:27 | 26.69834 | -80.13481 | 18468 ft | 392 kts | 172° |
| 2026-05-04 14:28 | 26.67198 | -80.12761 | 17960 ft | 389 kts | 174° |
| 2026-05-04 14:28 | 26.64593 | -80.12108 | 17503 ft | 387 kts | 174° |
| 2026-05-04 14:28 | 26.61967 | -80.11426 | 17048 ft | 386 kts | 173° |
| 2026-05-04 14:28 | 26.59357 | -80.10729 | 16569 ft | 383 kts | 173° |
| 2026-05-04 14:29 | 26.54564 | -80.09508 | 15675 ft | 327 kts | 175° |
| 2026-05-04 14:29 | 26.50394 | -80.08476 | 14931 ft | 290 kts | 176° |
| 2026-05-04 14:30 | 26.48438 | -80.07994 | 14609 ft | 288 kts | 176° |
| 2026-05-04 14:30 | 26.46389 | -80.07500 | 14287 ft | 316 kts | 175° |
| 2026-05-04 14:30 | 26.41975 | -80.06538 | 13418 ft | 327 kts | 176° |
| 2026-05-04 14:31 | 26.39741 | -80.06070 | 13009 ft | 325 kts | 176° |
| 2026-05-04 14:31 | 26.35437 | -80.04937 | 12729 ft | 314 kts | 172° |
| 2026-05-04 14:32 | 26.31212 | -80.03755 | 12461 ft | 311 kts | 172° |
| 2026-05-04 14:32 | 26.29132 | -80.03182 | 12348 ft | 310 kts | 172° |
| 2026-05-04 14:32 | 26.27041 | -80.02609 | 12215 ft | 308 kts | 172° |
| 2026-05-04 14:32 | 26.24972 | -80.02252 | 12072 ft | 295 kts | 189° |
| 2026-05-04 14:33 | 26.22968 | -80.02644 | 11992 ft | 294 kts | 199° |
| 2026-05-04 14:33 | 26.20954 | -80.03151 | 11844 ft | 297 kts | 198° |
| 2026-05-04 14:33 | 26.18965 | -80.03627 | 11722 ft | 295 kts | 198° |
| 2026-05-04 14:33 | 26.16967 | -80.04095 | 11607 ft | 293 kts | 198° |
| 2026-05-04 14:34 | 26.14980 | -80.04556 | 11485 ft | 291 kts | 198° |
| 2026-05-04 14:34 | 26.13002 | -80.05011 | 11358 ft | 289 kts | 198° |
| 2026-05-04 14:34 | 26.11035 | -80.05462 | 11233 ft | 288 kts | 198° |
| 2026-05-04 14:34 | 26.09077 | -80.05909 | 11119 ft | 286 kts | 198° |
| 2026-05-04 14:35 | 26.07127 | -80.06354 | 11000 ft | 285 kts | 198° |
| 2026-05-04 14:35 | 26.05188 | -80.06834 | 10850 ft | 286 kts | 199° |
| 2026-05-04 14:35 | 26.03242 | -80.07345 | 10691 ft | 288 kts | 199° |
| 2026-05-04 14:35 | 26.01290 | -80.07860 | 10549 ft | 290 kts | 198° |
| 2026-05-04 14:36 | 25.99317 | -80.08378 | 10405 ft | 294 kts | 198° |
| 2026-05-04 14:36 | 25.97307 | -80.08903 | 10215 ft | 296 kts | 198° |
| 2026-05-04 14:36 | 25.95345 | -80.09411 | 10057 ft | 289 kts | 198° |
| 2026-05-04 14:36 | 25.93441 | -80.09900 | 9874 ft | 277 kts | 198° |
| 2026-05-04 14:37 | 25.91602 | -80.10483 | 9665 ft | 271 kts | 207° |
| 2026-05-04 14:37 | 25.89915 | -80.11395 | 9556 ft | 270 kts | 213° |
| 2026-05-04 14:37 | 25.88265 | -80.12396 | 9394 ft | 271 kts | 213° |
| 2026-05-04 14:37 | 25.86605 | -80.13405 | 9270 ft | 272 kts | 213° |
| 2026-05-04 14:38 | 25.84936 | -80.14404 | 9120 ft | 272 kts | 212° |
| 2026-05-04 14:38 | 25.83264 | -80.15392 | 8956 ft | 272 kts | 212° |
| 2026-05-04 14:38 | 25.81595 | -80.16368 | 8811 ft | 271 kts | 212° |
| 2026-05-04 14:38 | 25.79929 | -80.17336 | 8644 ft | 270 kts | 211° |
| 2026-05-04 14:39 | 25.78264 | -80.18299 | 8505 ft | 268 kts | 211° |
| 2026-05-04 14:39 | 25.76607 | -80.19256 | 8374 ft | 270 kts | 211° |
| 2026-05-04 14:39 | 25.74929 | -80.20222 | 8229 ft | 273 kts | 211° |
| 2026-05-04 14:40 | 25.72294 | -80.22913 | 7805 ft | 257 kts | 249° |
| 2026-05-04 14:40 | 25.71812 | -80.24814 | 7555 ft | 256 kts | 258° |
| 2026-05-04 14:40 | 25.71419 | -80.26746 | 7299 ft | 258 kts | 258° |
| 2026-05-04 14:40 | 25.71113 | -80.28703 | 7035 ft | 258 kts | 265° |
| 2026-05-04 14:41 | 25.71018 | -80.30688 | 6779 ft | 258 kts | 268° |
| 2026-05-04 14:41 | 25.70962 | -80.32646 | 6508 ft | 257 kts | 268° |
| 2026-05-04 14:41 | 25.70821 | -80.36598 | 5958 ft | 256 kts | 268° |
| 2026-05-04 14:42 | 25.70643 | -80.40529 | 5416 ft | 253 kts | 268° |
| 2026-05-04 14:42 | 25.70551 | -80.42481 | 5173 ft | 254 kts | 268° |
| 2026-05-04 14:42 | 25.70449 | -80.44434 | 5115 ft | 254 kts | 266° |
| 2026-05-04 14:43 | 25.70317 | -80.46401 | 5086 ft | 257 kts | 267° |
| 2026-05-04 14:43 | 25.70186 | -80.48371 | 5028 ft | 252 kts | 266° |
| 2026-05-04 14:43 | 25.70064 | -80.50309 | 5015 ft | 252 kts | 266° |
| 2026-05-04 14:43 | 25.69941 | -80.52243 | 4982 ft | 251 kts | 267° |
| 2026-05-04 14:44 | 25.69831 | -80.54157 | 4957 ft | 245 kts | 268° |
| 2026-05-04 14:44 | 25.69827 | -80.56015 | 4402 ft | 240 kts | 282° |
| 2026-05-04 14:44 | 25.70635 | -80.57610 | 3606 ft | 241 kts | 321° |
| 2026-05-04 14:44 | 25.72134 | -80.58454 | 3329 ft | 244 kts | 345° |
| 2026-05-04 14:45 | 25.73713 | -80.58578 | 3090 ft | 220 kts | 9° |
| 2026-05-04 14:45 | 25.75050 | -80.58004 | 3003 ft | 197 kts | 33° |
| 2026-05-04 14:45 | 25.76043 | -80.56991 | 2985 ft | 193 kts | 48° |
| 2026-05-04 14:45 | 25.76712 | -80.55704 | 2985 ft | 197 kts | 73° |
| 2026-05-04 14:46 | 25.76943 | -80.54190 | 3018 ft | 201 kts | 78° |
| 2026-05-04 14:46 | 25.77183 | -80.52664 | 2992 ft | 200 kts | 76° |
| 2026-05-04 14:46 | 25.77427 | -80.51143 | 2985 ft | 200 kts | 76° |
| 2026-05-04 14:46 | 25.77669 | -80.49623 | 2990 ft | 199 kts | 77° |
| 2026-05-04 14:47 | 25.77907 | -80.48108 | 2990 ft | 200 kts | 78° |
| 2026-05-04 14:47 | 25.78023 | -80.46565 | 2713 ft | 203 kts | 84° |
| 2026-05-04 14:47 | 25.78063 | -80.45040 | 2452 ft | 187 kts | 84° |
| 2026-05-04 14:47 | 25.78108 | -80.43638 | 2175 ft | 176 kts | 84° |
| 2026-05-04 14:48 | 25.78160 | -80.42300 | 1945 ft | 172 kts | 82° |
| 2026-05-04 14:48 | 25.78216 | -80.40980 | 1737 ft | 172 kts | 83° |
| 2026-05-04 14:48 | 25.78267 | -80.39690 | 1544 ft | 159 kts | 83° |
| 2026-05-04 14:48 | 25.78316 | -80.38522 | 1327 ft | 146 kts | 83° |
| 2026-05-04 14:49 | 25.78362 | -80.37430 | 1122 ft | 137 kts | 83° |
| 2026-05-04 14:49 | 25.78406 | -80.36396 | 970 ft | 133 kts | 83° |
| 2026-05-04 14:49 | 25.78447 | -80.35370 | 792 ft | 131 kts | 82° |
| 2026-05-04 14:49 | 25.78489 | -80.34381 | 655 ft | 134 kts | 83° |
| 2026-05-04 14:50 | 25.78531 | -80.33331 | 410 ft | 130 kts | 83° |
| 2026-05-04 14:50 | 25.78582 | -80.32324 | 244 ft | 135 kts | 84° |
| 2026-05-04 14:50 | 25.78615 | -80.31248 | 61 ft | 143 kts | 83° |
| 2026-05-04 14:50 | 25.78668 | -80.30204 | 23 ft | 127 kts | 82° |
| 2026-05-04 14:51 | 25.78701 | -80.29360 | 19 ft | 89 kts | 86° |
| 2026-05-04 14:51 | 25.78728 | -80.28833 | 20 ft | 47 kts | 81° |
| 2026-05-04 14:51 | 25.78846 | -80.28658 | 19 ft | 24 kts | 41° |
| 2026-05-04 14:51 | 25.78976 | -80.28545 | 19 ft | 24 kts | 33° |
| 2026-05-04 14:52 | 25.79114 | -80.28448 | 19 ft | 24 kts | 32° |
| 2026-05-04 14:52 | 25.79251 | -80.28473 | 21 ft | 24 kts | 303° |
| 2026-05-04 14:52 | 25.79333 | -80.28633 | 19 ft | 24 kts | 300° |
| 2026-05-04 14:52 | 25.79414 | -80.28788 | 19 ft | 22 kts | 297° |
| 2026-05-04 14:53 | 25.79520 | -80.28896 | 22 ft | 22 kts | 351° |
| 2026-05-04 14:53 | 25.79670 | -80.28908 | 19 ft | 22 kts | 358° |
| 2026-05-04 14:53 | 25.79771 | -80.28912 | 20 ft | 22 kts | 358° |
| 2026-05-04 14:53 | 25.79898 | -80.28906 | 20 ft | 17 kts | 26° |
| 2026-05-04 14:54 | 25.79936 | -80.28748 | 20 ft | 17 kts | 86° |
| 2026-05-04 14:54 | 25.79942 | -80.28619 | 20 ft | 17 kts | 87° |
| 2026-05-04 14:54 | 25.79946 | -80.28534 | 20 ft | 17 kts | 87° |
| 2026-05-04 14:54 | 25.79952 | -80.28408 | 19 ft | 17 kts | 86° |
| 2026-05-04 14:55 | 25.79959 | -80.28281 | 19 ft | 17 kts | 86° |
| 2026-05-04 14:55 | 25.79965 | -80.28151 | 19 ft | 17 kts | 89° |
| 2026-05-04 14:55 | 25.79964 | -80.28022 | 19 ft | 17 kts | 90° |
| 2026-05-04 14:55 | 25.79935 | -80.27900 | 19 ft | 17 kts | 114° |
| 2026-05-04 14:56 | 25.79883 | -80.27787 | 19 ft | 17 kts | 143° |
| 2026-05-04 14:56 | 25.79794 | -80.27773 | 19 ft | 10 kts | 179° |
| 2026-05-04 14:56 | 25.79789 | -80.27773 | 19 ft | 0 kts | 179° |